This is the latest recevied weather packets stored in our database for station/object KB4NWJ. If no packets are shown the sender has not sent any weather packets the latest 10 day(s).
| Time | Temp. | Humidity | Pressure | Rain* | Wind** | Luminosity | Snow |
|---|---|---|---|---|---|---|---|
| 1777816512 | 15° C | 67% | 1022 hPa | 0 mm | - | 546 W/m² | - |
| 1777816208 | 14.44° C | 68% | 1022 hPa | 0 mm | - | 550 W/m² | - |
| 1777815906 | 13.89° C | 68% | 1022.1 hPa | 0 mm | - | 494 W/m² | - |
| 1777815603 | 13.89° C | 70% | 1022 hPa | 0 mm | - | 433 W/m² | - |
| 1777815300 | 12.78° C | 76% | 1022.2 hPa | 0 mm | - | 386 W/m² | - |
| 1777814996 | 13.89° C | 70% | 1022.2 hPa | 0 mm | - | 419 W/m² | - |
| 1777814693 | 13.89° C | 72% | 1022.2 hPa | 0 mm | - | 411 W/m² | - |
| 1777814390 | 13.33° C | 76% | 1022.1 hPa | 0 mm | - | 346 W/m² | - |
| 1777814087 | 12.78° C | 77% | 1022.1 hPa | 0 mm | - | 366 W/m² | - |
| 1777813784 | 11.67° C | 77% | 1021.9 hPa | 0 mm | - | 368 W/m² | - |
| 1777813482 | 10.56° C | 80% | 1022.1 hPa | 0 mm | - | 294 W/m² | - |
| 1777813179 | 11.11° C | 79% | 1022 hPa | 0 mm | - | 242 W/m² | - |
| 1777812877 | 10.56° C | 81% | 1022.1 hPa | 0 mm | - | 223 W/m² | - |
| 1777812573 | 10° C | 81% | 1021.8 hPa | 0 mm | - | 242 W/m² | - |
| 1777812271 | 10° C | 81% | 1021.7 hPa | 0 mm | - | 226 W/m² | - |
| 1777811969 | 10.56° C | 80% | 1021.8 hPa | 0 mm | - | 177 W/m² | - |
| 1777811667 | 10.56° C | 82% | 1021.7 hPa | 0 mm | - | 242 W/m² | - |
| 1777811362 | 9.44° C | 85% | 1021.8 hPa | 0 mm | - | 170 W/m² | - |
| 1777811060 | 8.89° C | 87% | 1021.8 hPa | 0 mm | - | 150 W/m² | - |
| 1777810757 | 8.33° C | 90% | 1021.6 hPa | 0 mm | - | 134 W/m² | - |
| 1777810454 | 7.78° C | 98% | 1021.6 hPa | 0 mm | - | 110 W/m² | - |
| 1777810149 | 6.67° C | 99% | 1021.6 hPa | 0 mm | - | 91 W/m² | - |
| 1777809847 | 6.11° C | 99% | 1021.6 hPa | 0 mm | - | 80 W/m² | - |
| 1777809544 | 5.56° C | 99% | 1021.6 hPa | 0 mm | - | 35 W/m² | - |
| 1777809242 | 5.56° C | 99% | 1021.6 hPa | 0 mm | - | 39 W/m² | - |
* Rain latest hour (hover to see other rain measurements)
** Current wind speed in m/s (hover to see current wind gust speed)